Time;durP1;ratioP1;P1;durP2;ratioP2;P2;SDS_P1;SDS_P2;PMS_P1;PMS_P2;Temp;Humidity;BMP_temperature;BMP_pressure;BME280_temperature;BME280_humidity;BME280_pressure;Samples;Min_cycle;Max_cycle;Signal;HPM_P1;HPM_P2
2021/12/17 01:06:42;;;;;;;28.00;24.10;;;23.30;57.60;;;;;;31279466;28;20128;-44
2021/12/17 01:37:02;;;;;;;29.83;24.73;;;23.30;57.20;;;;;;31551603;28;20056;-46
2021/12/17 02:07:29;;;;;;;26.95;22.10;;;23.00;57.70;;;;;;31509937;28;20100;-47
2021/12/17 02:22:56;;;;;;;22.90;19.35;;;23.00;58.20;;;;;;31506348;28;20068;-48
2021/12/17 02:37:59;;;;;;;20.85;17.55;;;23.00;58.10;;;;;;31505191;28;20099;-42
2021/12/17 02:53:07;;;;;;;21.02;17.55;;;23.30;59.40;;;;;;31529509;28;20131;-48
2021/12/17 03:08:14;;;;;;;20.08;17.75;;;23.40;57.90;;;;;;31538397;28;20132;-51
2021/12/17 03:23:32;;;;;;;22.00;18.17;;;23.30;57.80;;;;;;31610846;28;20139;-49
2021/12/17 03:38:35;;;;;;;21.38;17.52;;;23.20;58.20;;;;;;31519595;28;20105;-48
2021/12/17 03:53:37;;;;;;;21.40;16.88;;;23.10;58.10;;;;;;31496433;28;20045;-49
2021/12/17 04:08:40;;;;;;;19.23;15.65;;;23.00;58.40;;;;;;31556268;28;20056;-48
2021/12/17 04:23:43;;;;;;;15.15;13.55;;;22.90;58.50;;;;;;31515120;28;20056;-44
2021/12/17 04:38:45;;;;;;;16.75;14.98;;;23.20;58.90;;;;;;31543898;28;20078;-59
2021/12/17 05:09:23;;;;;;;14.48;12.98;;;23.30;57.90;;;;;;31613382;28;20126;-45
2021/12/17 05:24:26;;;;;;;14.93;13.27;;;23.20;58.30;;;;;;31597462;28;20041;-46
2021/12/17 05:39:29;;;;;;;14.57;12.85;;;23.10;58.30;;;;;;31605644;28;20040;-46
2021/12/17 05:54:31;;;;;;;18.35;12.40;;;23.00;58.50;;;;;;31565934;28;20106;-62
2021/12/17 06:09:33;;;;;;;17.98;9.27;;;22.90;58.80;;;;;;31555421;28;20092;-49
2021/12/17 06:24:35;;;;;;;15.68;9.30;;;23.10;57.80;;;;;;31559760;28;20108;-44
2021/12/17 06:39:37;;;;;;;15.35;8.27;;;23.20;57.80;;;;;;31535692;28;20052;-49
2021/12/17 07:40:10;;;;;;;15.95;12.02;;;22.40;49.90;;;;;;31546228;28;20045;-60
2021/12/17 07:55:12;;;;;;;23.17;17.45;;;22.60;49.60;;;;;;31591289;28;20044;-52
2021/12/17 08:10:14;;;;;;;25.63;18.95;;;22.80;51.20;;;;;;31594566;28;20132;-56
2021/12/17 08:25:17;;;;;;;24.02;17.65;;;23.00;50.00;;;;;;31602903;28;20072;-59
2021/12/17 08:40:19;;;;;;;20.52;14.43;;;23.00;50.80;;;;;;31518105;28;20099;-60
2021/12/17 08:55:21;;;;;;;21.15;15.35;;;22.90;51.10;;;;;;31611244;28;20051;-60
2021/12/17 09:10:24;;;;;;;15.63;12.40;;;22.90;52.10;;;;;;31571930;28;20040;-60
2021/12/17 09:25:26;;;;;;;17.35;12.07;;;22.90;52.90;;;;;;31546088;28;20080;-58
2021/12/17 09:40:29;;;;;;;13.02;10.80;;;23.10;53.10;;;;;;31511488;28;20096;-58
2021/12/17 09:55:31;;;;;;;13.30;11.15;;;23.10;53.10;;;;;;31511766;28;20069;-58
2021/12/17 10:10:33;;;;;;;11.90;9.95;;;23.10;53.30;;;;;;31571572;28;20048;-58
2021/12/17 10:25:38;;;;;;;11.68;9.32;;;22.90;53.50;;;;;;31544237;28;20052;-57
2021/12/17 10:41:27;;;;;;;10.05;9.02;;;22.90;53.70;;;;;;31533903;28;20091;-53
2021/12/17 10:56:15;;;;;;;10.38;8.90;;;23.10;53.70;;;;;;31547044;28;20112;-54
2021/12/17 11:11:19;;;;;;;10.00;9.00;;;23.20;53.70;;;;;;31520229;28;20477;-53
2021/12/17 11:26:22;;;;;;;10.18;8.77;;;23.10;53.70;;;;;;31535425;28;20057;-52
2021/12/17 11:41:51;;;;;;;9.30;7.90;;;23.00;53.90;;;;;;31561803;28;20128;-53
2021/12/17 11:57:03;;;;;;;7.93;6.63;;;22.90;54.20;;;;;;31585827;28;20052;-55
2021/12/17 12:12:10;;;;;;;8.05;7.25;;;23.00;54.10;;;;;;31573112;28;20045;-55
2021/12/17 12:27:28;;;;;;;7.90;6.70;;;23.20;54.00;;;;;;31505296;28;20140;-52
2021/12/17 12:42:32;;;;;;;7.90;6.82;;;23.20;53.90;;;;;;31594277;28;20127;-50
2021/12/17 12:57:44;;;;;;;12.73;10.68;;;23.10;54.10;;;;;;31528903;28;20053;-57
2021/12/17 13:12:55;;;;;;;17.05;8.38;;;22.70;50.50;;;;;;31540140;28;20135;-56
2021/12/17 13:27:57;;;;;;;11.57;8.38;;;22.80;53.40;;;;;;31604324;28;20048;-56
2021/12/17 13:43:00;;;;;;;10.93;6.68;;;22.90;53.80;;;;;;31513617;28;20033;-55
2021/12/17 13:58:07;;;;;;;8.82;6.72;;;23.10;53.80;;;;;;31603381;28;20149;-57
2021/12/17 14:13:23;;;;;;;11.02;7.47;;;23.10;53.80;;;;;;31600239;28;20064;-54
2021/12/17 14:28:38;;;;;;;10.60;7.47;;;23.10;53.80;;;;;;31573694;28;20056;-53
2021/12/17 14:43:51;;;;;;;8.65;6.85;;;22.90;54.20;;;;;;31604081;28;20047;-52
2021/12/17 15:14:17;;;;;;;7.20;5.60;;;23.10;54.20;;;;;;31542705;28;20041;-54
2021/12/17 15:29:24;;;;;;;7.10;4.65;;;23.20;53.90;;;;;;31200498;28;10000085;-59
2021/12/17 15:44:26;;;;;;;10.23;4.47;;;22.90;51.30;;;;;;31544903;28;20056;-55
2021/12/17 15:59:28;;;;;;;10.25;4.50;;;22.80;50.90;;;;;;31567567;28;20044;-57
2021/12/17 16:29:51;;;;;;;8.35;3.72;;;23.20;52.90;;;;;;31572472;28;20074;-58
2021/12/17 16:59:59;;;;;;;16.38;4.35;;;23.30;54.40;;;;;;31693483;28;20078;-61
2021/12/17 17:15:01;;;;;;;18.98;5.45;;;23.20;53.30;;;;;;31624425;28;20046;-58
2021/12/17 17:30:04;;;;;;;20.08;5.85;;;23.10;54.00;;;;;;31641225;28;20065;-63
2021/12/17 17:45:31;;;;;;;22.48;5.53;;;23.00;53.60;;;;;;31523244;28;20080;-63
2021/12/17 18:00:33;;;;;;;15.77;5.05;;;22.80;52.70;;;;;;31174834;28;10000515;-61
2021/12/17 18:15:36;;;;;;;8.55;3.90;;;23.00;54.20;;;;;;31537565;28;20146;-55
2021/12/17 18:30:38;;;;;;;12.68;3.80;;;23.30;56.10;;;;;;31586543;28;20079;-58
2021/12/17 18:45:42;;;;;;;6.88;3.30;;;23.30;55.30;;;;;;31561185;28;20036;-58
2021/12/17 19:00:45;;;;;;;8.27;3.10;;;23.30;55.60;;;;;;31592026;28;20060;-49
2021/12/17 19:15:48;;;;;;;5.60;2.90;;;23.30;55.70;;;;;;31544432;28;20056;-50
2021/12/17 19:30:51;;;;;;;9.00;3.80;;;23.30;55.80;;;;;;31552562;28;20060;-51
2021/12/17 19:45:55;;;;;;;6.10;3.13;;;23.20;56.00;;;;;;31648426;28;20040;-45
2021/12/17 20:00:58;;;;;;;8.80;3.50;;;23.00;56.20;;;;;;31655180;28;20048;-49
2021/12/17 20:16:00;;;;;;;9.00;3.00;;;23.00;56.30;;;;;;31639247;28;20053;-57
2021/12/17 20:31:04;;;;;;;6.03;2.38;;;22.90;56.60;;;;;;31684492;28;20087;-50
2021/12/17 20:46:07;;;;;;;4.53;2.60;;;22.90;56.40;;;;;;31609282;28;20044;-51
2021/12/17 21:01:09;;;;;;;6.70;3.42;;;23.00;56.90;;;;;;31732465;28;20104;-58
2021/12/17 21:16:11;;;;;;;2.83;1.75;;;23.40;56.40;;;;;;31551489;28;20041;-55
2021/12/17 21:31:13;;;;;;;7.60;6.03;;;23.40;56.70;;;;;;31701578;28;20076;-52
2021/12/17 21:46:15;;;;;;;9.43;6.53;;;23.40;55.80;;;;;;31711919;28;20087;-53
2021/12/17 22:01:17;;;;;;;8.57;6.28;;;23.30;55.90;;;;;;31707749;28;20056;-56
2021/12/17 22:16:19;;;;;;;8.27;6.57;;;23.20;56.10;;;;;;31644705;28;20108;-50
2021/12/17 22:31:22;;;;;;;6.30;5.53;;;23.20;56.40;;;;;;31664216;28;20059;-54
2021/12/17 22:46:25;;;;;;;10.30;5.95;;;23.10;56.50;;;;;;31690187;28;20040;-50
2021/12/17 23:01:31;;;;;;;8.65;5.68;;;23.00;56.70;;;;;;31626637;28;20041;-50
2021/12/17 23:16:36;;;;;;;14.48;11.02;;;23.00;56.90;;;;;;31692879;28;20056;-49
2021/12/17 23:31:39;;;;;;;10.68;8.10;;;22.90;56.70;;;;;;31660669;28;20056;-52
2021/12/17 23:46:41;;;;;;;9.90;7.53;;;22.90;57.10;;;;;;31687620;28;20086;-51
